sensor_id;sensor_type;location;lat;lon;timestamp;P1;durP1;ratioP1;P2;durP2;ratioP2
70733;SDS011;58320;48.804;9.252;2023-01-24T00:01:16;20.70;;;9.90;;
70733;SDS011;58320;48.804;9.252;2023-01-24T00:03:42;21.90;;;10.87;;
70733;SDS011;58320;48.804;9.252;2023-01-24T00:06:08;20.52;;;10.00;;
70733;SDS011;58320;48.804;9.252;2023-01-24T00:08:33;17.60;;;9.63;;
70733;SDS011;58320;48.804;9.252;2023-01-24T00:11:03;19.90;;;10.27;;
70733;SDS011;58320;48.804;9.252;2023-01-24T00:13:33;18.45;;;10.25;;
70733;SDS011;58320;48.804;9.252;2023-01-24T00:18:40;19.52;;;10.10;;
70733;SDS011;58320;48.804;9.252;2023-01-24T00:21:08;18.30;;;10.67;;
70733;SDS011;58320;48.804;9.252;2023-01-24T00:23:38;21.30;;;10.55;;
70733;SDS011;58320;48.804;9.252;2023-01-24T00:26:09;21.33;;;10.50;;
70733;SDS011;58320;48.804;9.252;2023-01-24T00:28:36;18.83;;;9.57;;
70733;SDS011;58320;48.804;9.252;2023-01-24T00:31:03;19.35;;;10.00;;
70733;SDS011;58320;48.804;9.252;2023-01-24T00:33:29;18.33;;;8.77;;
70733;SDS011;58320;48.804;9.252;2023-01-24T00:35:56;18.20;;;9.27;;
70733;SDS011;58320;48.804;9.252;2023-01-24T00:38:21;20.30;;;9.32;;
70733;SDS011;58320;48.804;9.252;2023-01-24T00:40:48;18.98;;;9.20;;
70733;SDS011;58320;48.804;9.252;2023-01-24T00:43:14;18.77;;;9.13;;
70733;SDS011;58320;48.804;9.252;2023-01-24T00:45:40;18.13;;;9.18;;
70733;SDS011;58320;48.804;9.252;2023-01-24T00:48:08;18.85;;;9.10;;
70733;SDS011;58320;48.804;9.252;2023-01-24T00:50:34;17.92;;;9.38;;
70733;SDS011;58320;48.804;9.252;2023-01-24T00:53:01;19.97;;;10.10;;
70733;SDS011;58320;48.804;9.252;2023-01-24T00:55:28;17.92;;;8.80;;
70733;SDS011;58320;48.804;9.252;2023-01-24T00:57:54;19.48;;;9.55;;
70733;SDS011;58320;48.804;9.252;2023-01-24T01:00:20;19.08;;;9.82;;
70733;SDS011;58320;48.804;9.252;2023-01-24T01:02:47;20.52;;;10.05;;
70733;SDS011;58320;48.804;9.252;2023-01-24T01:05:14;20.17;;;10.33;;
70733;SDS011;58320;48.804;9.252;2023-01-24T01:07:40;19.60;;;10.35;;
70733;SDS011;58320;48.804;9.252;2023-01-24T01:10:06;20.73;;;10.35;;
70733;SDS011;58320;48.804;9.252;2023-01-24T01:12:33;19.55;;;10.40;;
70733;SDS011;58320;48.804;9.252;2023-01-24T01:14:58;17.50;;;9.77;;
70733;SDS011;58320;48.804;9.252;2023-01-24T01:17:24;18.30;;;9.77;;
70733;SDS011;58320;48.804;9.252;2023-01-24T01:19:52;19.85;;;10.02;;
70733;SDS011;58320;48.804;9.252;2023-01-24T01:22:18;19.47;;;10.63;;
70733;SDS011;58320;48.804;9.252;2023-01-24T01:24:45;17.80;;;9.80;;
70733;SDS011;58320;48.804;9.252;2023-01-24T01:27:11;20.10;;;10.10;;
70733;SDS011;58320;48.804;9.252;2023-01-24T01:29:37;18.83;;;10.18;;
70733;SDS011;58320;48.804;9.252;2023-01-24T01:32:03;20.93;;;9.97;;
70733;SDS011;58320;48.804;9.252;2023-01-24T01:34:29;18.30;;;10.47;;
70733;SDS011;58320;48.804;9.252;2023-01-24T01:36:55;18.75;;;9.68;;
70733;SDS011;58320;48.804;9.252;2023-01-24T01:39:21;21.70;;;11.33;;
70733;SDS011;58320;48.804;9.252;2023-01-24T01:41:46;20.20;;;9.67;;
70733;SDS011;58320;48.804;9.252;2023-01-24T01:44:20;19.73;;;10.00;;
70733;SDS011;58320;48.804;9.252;2023-01-24T01:47:18;19.67;;;11.00;;
70733;SDS011;58320;48.804;9.252;2023-01-24T01:49:55;21.25;;;10.38;;
70733;SDS011;58320;48.804;9.252;2023-01-24T01:52:38;19.70;;;10.65;;
70733;SDS011;58320;48.804;9.252;2023-01-24T01:55:14;19.73;;;10.13;;
70733;SDS011;58320;48.804;9.252;2023-01-24T01:57:42;20.88;;;10.20;;
70733;SDS011;58320;48.804;9.252;2023-01-24T02:02:36;19.98;;;11.00;;
70733;SDS011;58320;48.804;9.252;2023-01-24T02:05:07;20.00;;;10.27;;
70733;SDS011;58320;48.804;9.252;2023-01-24T02:07:38;21.48;;;10.77;;
70733;SDS011;58320;48.804;9.252;2023-01-24T02:10:17;19.60;;;9.45;;
70733;SDS011;58320;48.804;9.252;2023-01-24T02:12:47;20.97;;;10.07;;
70733;SDS011;58320;48.804;9.252;2023-01-24T02:15:19;20.95;;;10.63;;
70733;SDS011;58320;48.804;9.252;2023-01-24T02:18:06;20.85;;;10.40;;
70733;SDS011;58320;48.804;9.252;2023-01-24T02:23:24;19.40;;;9.85;;
70733;SDS011;58320;48.804;9.252;2023-01-24T02:26:22;20.40;;;10.33;;
70733;SDS011;58320;48.804;9.252;2023-01-24T02:28:52;18.58;;;10.50;;
70733;SDS011;58320;48.804;9.252;2023-01-24T02:31:22;21.73;;;10.15;;
70733;SDS011;58320;48.804;9.252;2023-01-24T02:33:48;19.35;;;9.57;;
70733;SDS011;58320;48.804;9.252;2023-01-24T02:38:53;20.30;;;9.98;;
70733;SDS011;58320;48.804;9.252;2023-01-24T02:42:02;20.58;;;9.77;;
70733;SDS011;58320;48.804;9.252;2023-01-24T02:44:33;20.42;;;9.75;;
70733;SDS011;58320;48.804;9.252;2023-01-24T02:47:12;18.65;;;9.20;;
70733;SDS011;58320;48.804;9.252;2023-01-24T02:49:38;18.63;;;9.60;;
70733;SDS011;58320;48.804;9.252;2023-01-24T02:52:03;19.40;;;9.68;;
70733;SDS011;58320;48.804;9.252;2023-01-24T02:54:47;18.80;;;9.63;;
70733;SDS011;58320;48.804;9.252;2023-01-24T02:57:13;20.70;;;9.87;;
70733;SDS011;58320;48.804;9.252;2023-01-24T02:59:57;18.67;;;9.52;;
70733;SDS011;58320;48.804;9.252;2023-01-24T03:02:23;21.07;;;10.17;;
70733;SDS011;58320;48.804;9.252;2023-01-24T03:04:49;20.15;;;9.95;;
70733;SDS011;58320;48.804;9.252;2023-01-24T03:07:15;20.27;;;10.47;;
70733;SDS011;58320;48.804;9.252;2023-01-24T03:09:41;19.83;;;10.13;;
70733;SDS011;58320;48.804;9.252;2023-01-24T03:12:12;20.42;;;10.68;;
70733;SDS011;58320;48.804;9.252;2023-01-24T03:14:56;21.98;;;11.18;;
70733;SDS011;58320;48.804;9.252;2023-01-24T03:17:41;19.58;;;9.93;;
70733;SDS011;58320;48.804;9.252;2023-01-24T03:20:25;18.27;;;9.50;;
70733;SDS011;58320;48.804;9.252;2023-01-24T03:23:09;20.60;;;10.23;;
70733;SDS011;58320;48.804;9.252;2023-01-24T03:25:54;18.02;;;9.52;;
70733;SDS011;58320;48.804;9.252;2023-01-24T03:28:40;21.33;;;9.75;;
70733;SDS011;58320;48.804;9.252;2023-01-24T03:31:25;19.17;;;9.93;;
70733;SDS011;58320;48.804;9.252;2023-01-24T03:34:09;23.27;;;10.23;;
70733;SDS011;58320;48.804;9.252;2023-01-24T03:36:54;19.48;;;9.73;;
70733;SDS011;58320;48.804;9.252;2023-01-24T03:39:20;19.05;;;9.45;;
70733;SDS011;58320;48.804;9.252;2023-01-24T03:42:05;18.45;;;9.60;;
70733;SDS011;58320;48.804;9.252;2023-01-24T03:44:30;20.50;;;9.30;;
70733;SDS011;58320;48.804;9.252;2023-01-24T03:46:56;22.05;;;10.43;;
70733;SDS011;58320;48.804;9.252;2023-01-24T03:49:22;23.07;;;10.40;;
70733;SDS011;58320;48.804;9.252;2023-01-24T03:52:06;20.50;;;10.50;;
70733;SDS011;58320;48.804;9.252;2023-01-24T03:54:51;20.75;;;10.27;;
70733;SDS011;58320;48.804;9.252;2023-01-24T03:57:16;18.52;;;9.60;;
70733;SDS011;58320;48.804;9.252;2023-01-24T03:59:42;21.10;;;9.83;;
70733;SDS011;58320;48.804;9.252;2023-01-24T04:02:08;18.80;;;9.35;;
70733;SDS011;58320;48.804;9.252;2023-01-24T04:04:33;20.17;;;10.70;;
70733;SDS011;58320;48.804;9.252;2023-01-24T04:07:18;22.10;;;10.65;;
70733;SDS011;58320;48.804;9.252;2023-01-24T04:09:44;20.30;;;9.80;;
70733;SDS011;58320;48.804;9.252;2023-01-24T04:12:09;21.03;;;10.70;;
70733;SDS011;58320;48.804;9.252;2023-01-24T04:14:35;19.90;;;9.50;;
70733;SDS011;58320;48.804;9.252;2023-01-24T04:17:01;21.30;;;10.77;;
70733;SDS011;58320;48.804;9.252;2023-01-24T04:19:27;22.42;;;10.93;;
70733;SDS011;58320;48.804;9.252;2023-01-24T04:21:52;21.53;;;10.80;;
70733;SDS011;58320;48.804;9.252;2023-01-24T04:24:18;20.95;;;10.35;;
70733;SDS011;58320;48.804;9.252;2023-01-24T04:26:44;21.80;;;11.25;;
70733;SDS011;58320;48.804;9.252;2023-01-24T04:29:09;17.57;;;9.90;;
70733;SDS011;58320;48.804;9.252;2023-01-24T04:31:35;22.83;;;10.80;;
70733;SDS011;58320;48.804;9.252;2023-01-24T04:34:01;20.47;;;11.07;;
70733;SDS011;58320;48.804;9.252;2023-01-24T04:36:27;20.50;;;10.60;;
70733;SDS011;58320;48.804;9.252;2023-01-24T04:38:54;23.67;;;11.20;;
70733;SDS011;58320;48.804;9.252;2023-01-24T04:41:20;22.00;;;10.77;;
70733;SDS011;58320;48.804;9.252;2023-01-24T04:43:46;22.52;;;11.10;;
70733;SDS011;58320;48.804;9.252;2023-01-24T04:46:11;21.93;;;11.07;;
70733;SDS011;58320;48.804;9.252;2023-01-24T04:48:37;21.02;;;10.15;;
70733;SDS011;58320;48.804;9.252;2023-01-24T04:51:04;18.97;;;10.00;;
70733;SDS011;58320;48.804;9.252;2023-01-24T04:53:30;22.35;;;10.90;;
70733;SDS011;58320;48.804;9.252;2023-01-24T04:55:59;20.90;;;10.45;;
70733;SDS011;58320;48.804;9.252;2023-01-24T04:58:26;21.50;;;11.18;;
70733;SDS011;58320;48.804;9.252;2023-01-24T05:00:52;18.67;;;9.03;;
70733;SDS011;58320;48.804;9.252;2023-01-24T05:03:18;20.00;;;10.38;;
70733;SDS011;58320;48.804;9.252;2023-01-24T05:05:48;20.65;;;9.98;;
70733;SDS011;58320;48.804;9.252;2023-01-24T05:08:17;20.17;;;10.83;;
70733;SDS011;58320;48.804;9.252;2023-01-24T05:10:43;21.10;;;10.50;;
70733;SDS011;58320;48.804;9.252;2023-01-24T05:13:09;21.00;;;10.52;;
70733;SDS011;58320;48.804;9.252;2023-01-24T05:15:35;20.85;;;11.02;;
70733;SDS011;58320;48.804;9.252;2023-01-24T05:18:02;21.23;;;10.77;;
70733;SDS011;58320;48.804;9.252;2023-01-24T05:20:28;19.70;;;9.98;;
70733;SDS011;58320;48.804;9.252;2023-01-24T05:22:55;20.50;;;9.93;;
70733;SDS011;58320;48.804;9.252;2023-01-24T05:25:21;24.40;;;11.45;;
70733;SDS011;58320;48.804;9.252;2023-01-24T05:27:47;18.33;;;10.00;;
70733;SDS011;58320;48.804;9.252;2023-01-24T05:30:13;20.30;;;10.55;;
70733;SDS011;58320;48.804;9.252;2023-01-24T05:32:39;21.75;;;10.50;;
70733;SDS011;58320;48.804;9.252;2023-01-24T05:35:05;21.03;;;10.20;;
70733;SDS011;58320;48.804;9.252;2023-01-24T05:37:31;21.33;;;10.50;;
70733;SDS011;58320;48.804;9.252;2023-01-24T05:39:57;22.23;;;10.35;;
70733;SDS011;58320;48.804;9.252;2023-01-24T05:42:23;21.07;;;10.87;;
70733;SDS011;58320;48.804;9.252;2023-01-24T05:44:49;20.85;;;10.38;;
70733;SDS011;58320;48.804;9.252;2023-01-24T05:47:14;22.00;;;10.97;;
70733;SDS011;58320;48.804;9.252;2023-01-24T05:49:40;19.23;;;10.35;;
70733;SDS011;58320;48.804;9.252;2023-01-24T05:52:06;21.57;;;11.60;;
70733;SDS011;58320;48.804;9.252;2023-01-24T05:54:31;23.48;;;10.73;;
70733;SDS011;58320;48.804;9.252;2023-01-24T05:56:57;21.40;;;10.53;;
70733;SDS011;58320;48.804;9.252;2023-01-24T05:59:23;23.67;;;11.77;;
70733;SDS011;58320;48.804;9.252;2023-01-24T06:01:49;21.67;;;11.45;;
70733;SDS011;58320;48.804;9.252;2023-01-24T06:04:14;21.03;;;10.37;;
70733;SDS011;58320;48.804;9.252;2023-01-24T06:06:40;22.92;;;11.25;;
70733;SDS011;58320;48.804;9.252;2023-01-24T06:09:06;20.23;;;9.90;;
70733;SDS011;58320;48.804;9.252;2023-01-24T06:11:33;23.33;;;10.77;;
70733;SDS011;58320;48.804;9.252;2023-01-24T06:13:59;23.95;;;11.50;;
70733;SDS011;58320;48.804;9.252;2023-01-24T06:16:26;23.25;;;11.05;;
70733;SDS011;58320;48.804;9.252;2023-01-24T06:18:53;20.47;;;10.57;;
70733;SDS011;58320;48.804;9.252;2023-01-24T06:24:18;20.15;;;10.23;;
70733;SDS011;58320;48.804;9.252;2023-01-24T06:26:47;20.98;;;10.77;;
70733;SDS011;58320;48.804;9.252;2023-01-24T06:29:17;22.30;;;9.93;;
70733;SDS011;58320;48.804;9.252;2023-01-24T06:39:54;24.73;;;11.43;;
70733;SDS011;58320;48.804;9.252;2023-01-24T06:42:21;23.13;;;11.07;;
70733;SDS011;58320;48.804;9.252;2023-01-24T06:44:48;21.07;;;10.50;;
70733;SDS011;58320;48.804;9.252;2023-01-24T06:47:14;23.33;;;10.98;;
70733;SDS011;58320;48.804;9.252;2023-01-24T06:49:41;25.65;;;12.60;;
70733;SDS011;58320;48.804;9.252;2023-01-24T06:52:07;24.00;;;12.00;;
70733;SDS011;58320;48.804;9.252;2023-01-24T06:54:34;24.70;;;11.68;;
70733;SDS011;58320;48.804;9.252;2023-01-24T06:57:00;24.77;;;11.50;;
70733;SDS011;58320;48.804;9.252;2023-01-24T06:59:27;25.58;;;12.43;;
70733;SDS011;58320;48.804;9.252;2023-01-24T07:01:52;24.75;;;12.23;;
70733;SDS011;58320;48.804;9.252;2023-01-24T07:04:18;22.23;;;11.17;;
70733;SDS011;58320;48.804;9.252;2023-01-24T07:06:44;26.55;;;12.05;;
70733;SDS011;58320;48.804;9.252;2023-01-24T07:09:10;23.67;;;11.13;;
70733;SDS011;58320;48.804;9.252;2023-01-24T07:11:36;22.97;;;12.40;;
70733;SDS011;58320;48.804;9.252;2023-01-24T07:14:02;20.77;;;10.95;;
70733;SDS011;58320;48.804;9.252;2023-01-24T07:16:27;23.58;;;12.10;;
70733;SDS011;58320;48.804;9.252;2023-01-24T07:18:53;22.27;;;11.87;;
70733;SDS011;58320;48.804;9.252;2023-01-24T07:21:20;24.77;;;12.00;;
70733;SDS011;58320;48.804;9.252;2023-01-24T07:23:47;26.95;;;12.55;;
70733;SDS011;58320;48.804;9.252;2023-01-24T07:26:14;22.90;;;11.27;;
70733;SDS011;58320;48.804;9.252;2023-01-24T07:28:40;25.33;;;12.02;;
70733;SDS011;58320;48.804;9.252;2023-01-24T07:31:07;23.47;;;11.57;;
70733;SDS011;58320;48.804;9.252;2023-01-24T07:33:37;23.92;;;12.43;;
70733;SDS011;58320;48.804;9.252;2023-01-24T07:36:10;25.45;;;12.40;;
70733;SDS011;58320;48.804;9.252;2023-01-24T07:38:37;23.13;;;10.97;;
70733;SDS011;58320;48.804;9.252;2023-01-24T07:41:07;23.60;;;11.10;;
70733;SDS011;58320;48.804;9.252;2023-01-24T20:08:08;30.40;;;14.60;;
70733;SDS011;58320;48.804;9.252;2023-01-24T20:10:34;26.77;;;13.13;;
70733;SDS011;58320;48.804;9.252;2023-01-24T20:13:03;26.58;;;13.63;;
70733;SDS011;58320;48.804;9.252;2023-01-24T20:15:30;27.52;;;12.30;;
70733;SDS011;58320;48.804;9.252;2023-01-24T20:17:57;27.38;;;13.35;;
70733;SDS011;58320;48.804;9.252;2023-01-24T20:20:23;26.80;;;12.60;;
70733;SDS011;58320;48.804;9.252;2023-01-24T20:22:53;27.92;;;12.88;;
70733;SDS011;58320;48.804;9.252;2023-01-24T20:25:20;26.05;;;12.27;;
70733;SDS011;58320;48.804;9.252;2023-01-24T20:27:48;25.45;;;12.45;;
